sensor_id;sensor_type;location;lat;lon;timestamp;P1;durP1;ratioP1;P2;durP2;ratioP2
20559;SDS011;10438;51.454;6.718;2023-04-03T00:00:27;12.50;;;7.33;;
20559;SDS011;10438;51.454;6.718;2023-04-03T00:02:53;16.23;;;8.13;;
20559;SDS011;10438;51.454;6.718;2023-04-03T00:05:19;14.77;;;7.13;;
20559;SDS011;10438;51.454;6.718;2023-04-03T00:07:44;14.43;;;7.80;;
20559;SDS011;10438;51.454;6.718;2023-04-03T00:10:10;16.17;;;9.13;;
20559;SDS011;10438;51.454;6.718;2023-04-03T00:12:36;13.93;;;8.73;;
20559;SDS011;10438;51.454;6.718;2023-04-03T00:15:01;17.80;;;8.93;;
20559;SDS011;10438;51.454;6.718;2023-04-03T00:17:27;17.87;;;9.23;;
20559;SDS011;10438;51.454;6.718;2023-04-03T00:19:52;16.20;;;9.13;;
20559;SDS011;10438;51.454;6.718;2023-04-03T00:22:18;14.63;;;8.97;;
20559;SDS011;10438;51.454;6.718;2023-04-03T00:24:43;16.13;;;9.23;;
20559;SDS011;10438;51.454;6.718;2023-04-03T00:27:09;19.13;;;9.67;;
20559;SDS011;10438;51.454;6.718;2023-04-03T00:29:36;16.27;;;9.67;;
20559;SDS011;10438;51.454;6.718;2023-04-03T00:32:01;19.20;;;10.00;;
20559;SDS011;10438;51.454;6.718;2023-04-03T00:34:27;17.17;;;9.97;;
20559;SDS011;10438;51.454;6.718;2023-04-03T00:36:53;17.63;;;10.17;;
20559;SDS011;10438;51.454;6.718;2023-04-03T00:39:18;17.13;;;10.37;;
20559;SDS011;10438;51.454;6.718;2023-04-03T00:41:44;20.67;;;9.33;;
20559;SDS011;10438;51.454;6.718;2023-04-03T00:44:23;13.70;;;9.33;;
20559;SDS011;10438;51.454;6.718;2023-04-03T00:47:08;21.23;;;9.00;;
20559;SDS011;10438;51.454;6.718;2023-04-03T00:49:38;17.53;;;8.27;;
20559;SDS011;10438;51.454;6.718;2023-04-03T00:52:05;15.83;;;8.73;;
20559;SDS011;10438;51.454;6.718;2023-04-03T00:54:35;15.63;;;8.03;;
20559;SDS011;10438;51.454;6.718;2023-04-03T00:57:02;21.87;;;9.50;;
20559;SDS011;10438;51.454;6.718;2023-04-03T00:59:31;19.03;;;8.27;;
20559;SDS011;10438;51.454;6.718;2023-04-03T01:02:00;16.27;;;7.90;;
20559;SDS011;10438;51.454;6.718;2023-04-03T01:06:56;14.60;;;7.47;;
20559;SDS011;10438;51.454;6.718;2023-04-03T01:09:24;18.57;;;8.13;;
20559;SDS011;10438;51.454;6.718;2023-04-03T01:11:51;15.87;;;7.77;;
20559;SDS011;10438;51.454;6.718;2023-04-03T01:14:16;16.20;;;8.00;;
20559;SDS011;10438;51.454;6.718;2023-04-03T01:16:42;14.33;;;8.20;;
20559;SDS011;10438;51.454;6.718;2023-04-03T01:19:08;17.47;;;7.80;;
20559;SDS011;10438;51.454;6.718;2023-04-03T01:24:36;14.37;;;7.20;;
20559;SDS011;10438;51.454;6.718;2023-04-03T01:27:04;14.63;;;7.60;;
20559;SDS011;10438;51.454;6.718;2023-04-03T01:29:32;16.83;;;6.93;;
20559;SDS011;10438;51.454;6.718;2023-04-03T01:31:58;15.93;;;6.57;;
20559;SDS011;10438;51.454;6.718;2023-04-03T01:34:26;12.57;;;6.10;;
20559;SDS011;10438;51.454;6.718;2023-04-03T01:36:52;18.47;;;6.47;;
20559;SDS011;10438;51.454;6.718;2023-04-03T01:39:18;11.47;;;5.70;;
20559;SDS011;10438;51.454;6.718;2023-04-03T01:41:44;15.10;;;6.33;;
20559;SDS011;10438;51.454;6.718;2023-04-03T01:44:10;18.10;;;7.30;;
20559;SDS011;10438;51.454;6.718;2023-04-03T01:46:36;15.90;;;6.53;;
20559;SDS011;10438;51.454;6.718;2023-04-03T01:49:02;13.00;;;6.47;;
20559;SDS011;10438;51.454;6.718;2023-04-03T01:51:28;13.93;;;5.80;;
20559;SDS011;10438;51.454;6.718;2023-04-03T01:53:54;13.43;;;4.40;;
20559;SDS011;10438;51.454;6.718;2023-04-03T01:56:20;10.33;;;4.77;;
20559;SDS011;10438;51.454;6.718;2023-04-03T01:58:48;12.30;;;4.70;;
20559;SDS011;10438;51.454;6.718;2023-04-03T02:01:13;9.53;;;4.43;;
20559;SDS011;10438;51.454;6.718;2023-04-03T02:03:40;12.77;;;4.10;;
20559;SDS011;10438;51.454;6.718;2023-04-03T02:06:05;8.97;;;4.03;;
20559;SDS011;10438;51.454;6.718;2023-04-03T02:08:31;10.37;;;3.97;;
20559;SDS011;10438;51.454;6.718;2023-04-03T02:10:56;9.33;;;4.10;;
20559;SDS011;10438;51.454;6.718;2023-04-03T02:13:22;10.57;;;4.23;;
20559;SDS011;10438;51.454;6.718;2023-04-03T02:15:48;12.30;;;4.03;;
20559;SDS011;10438;51.454;6.718;2023-04-03T02:18:13;13.80;;;5.87;;
20559;SDS011;10438;51.454;6.718;2023-04-03T02:20:39;17.90;;;6.50;;
20559;SDS011;10438;51.454;6.718;2023-04-03T02:23:05;16.23;;;5.20;;
20559;SDS011;10438;51.454;6.718;2023-04-03T02:25:31;17.70;;;6.23;;
20559;SDS011;10438;51.454;6.718;2023-04-03T02:27:58;19.57;;;6.77;;
20559;SDS011;10438;51.454;6.718;2023-04-03T02:30:23;19.73;;;6.87;;
20559;SDS011;10438;51.454;6.718;2023-04-03T02:32:49;18.97;;;6.40;;
20559;SDS011;10438;51.454;6.718;2023-04-03T02:35:15;13.37;;;6.07;;
20559;SDS011;10438;51.454;6.718;2023-04-03T02:37:41;15.07;;;6.53;;
20559;SDS011;10438;51.454;6.718;2023-04-03T02:40:08;14.87;;;5.70;;
20559;SDS011;10438;51.454;6.718;2023-04-03T02:42:33;11.60;;;4.93;;
20559;SDS011;10438;51.454;6.718;2023-04-03T02:44:59;13.33;;;4.37;;
20559;SDS011;10438;51.454;6.718;2023-04-03T02:47:25;14.70;;;4.80;;
20559;SDS011;10438;51.454;6.718;2023-04-03T02:49:51;10.53;;;4.03;;
20559;SDS011;10438;51.454;6.718;2023-04-03T02:52:17;11.03;;;3.43;;
20559;SDS011;10438;51.454;6.718;2023-04-03T02:54:43;11.93;;;4.10;;
20559;SDS011;10438;51.454;6.718;2023-04-03T02:57:08;10.40;;;3.53;;
20559;SDS011;10438;51.454;6.718;2023-04-03T02:59:37;12.13;;;3.47;;
20559;SDS011;10438;51.454;6.718;2023-04-03T03:02:07;11.90;;;3.37;;
20559;SDS011;10438;51.454;6.718;2023-04-03T03:04:33;7.07;;;2.57;;
20559;SDS011;10438;51.454;6.718;2023-04-03T03:06:59;12.27;;;3.60;;
20559;SDS011;10438;51.454;6.718;2023-04-03T03:09:24;20.83;;;5.93;;
20559;SDS011;10438;51.454;6.718;2023-04-03T03:11:51;16.40;;;5.53;;
20559;SDS011;10438;51.454;6.718;2023-04-03T03:14:16;16.63;;;4.97;;
20559;SDS011;10438;51.454;6.718;2023-04-03T03:16:42;9.60;;;3.70;;
20559;SDS011;10438;51.454;6.718;2023-04-03T03:19:07;16.60;;;4.97;;
20559;SDS011;10438;51.454;6.718;2023-04-03T03:21:33;9.70;;;3.33;;
20559;SDS011;10438;51.454;6.718;2023-04-03T03:23:59;8.13;;;3.03;;
20559;SDS011;10438;51.454;6.718;2023-04-03T03:26:24;11.53;;;3.17;;
20559;SDS011;10438;51.454;6.718;2023-04-03T03:28:50;13.80;;;4.07;;
20559;SDS011;10438;51.454;6.718;2023-04-03T03:31:16;16.17;;;4.23;;
20559;SDS011;10438;51.454;6.718;2023-04-03T03:33:41;15.53;;;3.90;;
20559;SDS011;10438;51.454;6.718;2023-04-03T03:36:07;13.03;;;3.13;;
20559;SDS011;10438;51.454;6.718;2023-04-03T03:38:32;10.40;;;3.03;;
20559;SDS011;10438;51.454;6.718;2023-04-03T03:40:58;11.53;;;3.73;;
20559;SDS011;10438;51.454;6.718;2023-04-03T03:43:23;9.50;;;2.63;;
20559;SDS011;10438;51.454;6.718;2023-04-03T03:45:50;7.43;;;2.40;;
20559;SDS011;10438;51.454;6.718;2023-04-03T03:48:19;8.03;;;1.40;;
20559;SDS011;10438;51.454;6.718;2023-04-03T03:50:46;8.57;;;2.07;;
20559;SDS011;10438;51.454;6.718;2023-04-03T03:53:12;7.33;;;2.20;;
20559;SDS011;10438;51.454;6.718;2023-04-03T03:55:37;6.80;;;1.70;;
20559;SDS011;10438;51.454;6.718;2023-04-03T03:58:03;8.70;;;2.03;;
20559;SDS011;10438;51.454;6.718;2023-04-03T04:00:28;7.07;;;2.07;;
20559;SDS011;10438;51.454;6.718;2023-04-03T04:02:55;12.07;;;2.60;;
20559;SDS011;10438;51.454;6.718;2023-04-03T04:05:21;10.70;;;2.60;;
20559;SDS011;10438;51.454;6.718;2023-04-03T04:07:46;9.43;;;2.23;;
20559;SDS011;10438;51.454;6.718;2023-04-03T04:10:12;10.17;;;2.80;;
20559;SDS011;10438;51.454;6.718;2023-04-03T04:12:38;10.40;;;2.63;;
20559;SDS011;10438;51.454;6.718;2023-04-03T04:15:04;11.63;;;3.87;;
20559;SDS011;10438;51.454;6.718;2023-04-03T04:17:30;14.37;;;3.20;;
20559;SDS011;10438;51.454;6.718;2023-04-03T04:19:55;11.23;;;2.00;;
20559;SDS011;10438;51.454;6.718;2023-04-03T04:22:21;7.17;;;2.20;;
20559;SDS011;10438;51.454;6.718;2023-04-03T04:24:47;10.93;;;2.30;;
20559;SDS011;10438;51.454;6.718;2023-04-03T04:27:12;8.67;;;2.63;;
20559;SDS011;10438;51.454;6.718;2023-04-03T04:29:38;12.27;;;2.80;;
20559;SDS011;10438;51.454;6.718;2023-04-03T04:32:03;13.63;;;2.60;;
20559;SDS011;10438;51.454;6.718;2023-04-03T04:34:29;12.50;;;2.93;;
20559;SDS011;10438;51.454;6.718;2023-04-03T04:36:55;13.90;;;2.53;;
20559;SDS011;10438;51.454;6.718;2023-04-03T04:39:21;11.30;;;2.90;;
20559;SDS011;10438;51.454;6.718;2023-04-03T04:41:47;8.03;;;2.17;;
20559;SDS011;10438;51.454;6.718;2023-04-03T04:44:12;12.37;;;2.40;;
20559;SDS011;10438;51.454;6.718;2023-04-03T04:46:38;9.57;;;3.43;;
20559;SDS011;10438;51.454;6.718;2023-04-03T04:49:03;18.13;;;6.47;;
20559;SDS011;10438;51.454;6.718;2023-04-03T04:51:29;23.80;;;5.70;;
20559;SDS011;10438;51.454;6.718;2023-04-03T04:53:54;14.63;;;4.53;;
20559;SDS011;10438;51.454;6.718;2023-04-03T04:56:20;12.47;;;4.40;;
20559;SDS011;10438;51.454;6.718;2023-04-03T04:58:45;9.50;;;3.30;;
20559;SDS011;10438;51.454;6.718;2023-04-03T05:01:11;14.00;;;3.60;;
20559;SDS011;10438;51.454;6.718;2023-04-03T05:03:38;10.60;;;2.80;;
20559;SDS011;10438;51.454;6.718;2023-04-03T05:06:03;11.30;;;2.90;;
20559;SDS011;10438;51.454;6.718;2023-04-03T05:08:30;11.07;;;3.60;;
20559;SDS011;10438;51.454;6.718;2023-04-03T05:10:56;14.40;;;2.90;;
20559;SDS011;10438;51.454;6.718;2023-04-03T05:13:22;12.80;;;3.13;;
20559;SDS011;10438;51.454;6.718;2023-04-03T05:15:47;13.10;;;2.97;;
20559;SDS011;10438;51.454;6.718;2023-04-03T05:18:13;9.47;;;2.60;;
20559;SDS011;10438;51.454;6.718;2023-04-03T05:20:38;11.70;;;2.77;;
20559;SDS011;10438;51.454;6.718;2023-04-03T05:23:04;12.37;;;3.67;;
20559;SDS011;10438;51.454;6.718;2023-04-03T05:25:30;16.63;;;3.57;;
20559;SDS011;10438;51.454;6.718;2023-04-03T05:27:55;8.90;;;2.73;;
20559;SDS011;10438;51.454;6.718;2023-04-03T05:30:21;10.73;;;2.87;;
20559;SDS011;10438;51.454;6.718;2023-04-03T05:32:47;14.80;;;3.00;;
20559;SDS011;10438;51.454;6.718;2023-04-03T05:35:12;14.83;;;3.70;;
20559;SDS011;10438;51.454;6.718;2023-04-03T05:37:38;19.43;;;3.70;;
20559;SDS011;10438;51.454;6.718;2023-04-03T05:40:04;11.67;;;4.00;;
20559;SDS011;10438;51.454;6.718;2023-04-03T05:42:30;14.67;;;3.50;;
20559;SDS011;10438;51.454;6.718;2023-04-03T05:44:57;9.80;;;2.87;;
20559;SDS011;10438;51.454;6.718;2023-04-03T05:47:22;14.93;;;3.43;;
20559;SDS011;10438;51.454;6.718;2023-04-03T05:49:48;10.53;;;3.20;;
20559;SDS011;10438;51.454;6.718;2023-04-03T05:52:18;10.07;;;2.87;;
20559;SDS011;10438;51.454;6.718;2023-04-03T05:54:51;10.93;;;2.77;;
20559;SDS011;10438;51.454;6.718;2023-04-03T05:57:17;6.73;;;2.33;;
20559;SDS011;10438;51.454;6.718;2023-04-03T05:59:43;9.00;;;2.33;;
20559;SDS011;10438;51.454;6.718;2023-04-03T06:02:28;11.07;;;3.20;;
20559;SDS011;10438;51.454;6.718;2023-04-03T06:04:54;9.03;;;2.87;;
20559;SDS011;10438;51.454;6.718;2023-04-03T06:07:21;13.40;;;2.27;;
20559;SDS011;10438;51.454;6.718;2023-04-03T06:09:48;12.40;;;2.70;;
20559;SDS011;10438;51.454;6.718;2023-04-03T06:12:16;9.10;;;2.53;;
20559;SDS011;10438;51.454;6.718;2023-04-03T06:14:42;8.83;;;2.03;;
20559;SDS011;10438;51.454;6.718;2023-04-03T06:17:07;9.33;;;2.30;;
20559;SDS011;10438;51.454;6.718;2023-04-03T06:19:34;16.80;;;2.60;;
20559;SDS011;10438;51.454;6.718;2023-04-03T06:22:00;7.73;;;2.30;;
20559;SDS011;10438;51.454;6.718;2023-04-03T06:24:25;10.60;;;2.37;;
20559;SDS011;10438;51.454;6.718;2023-04-03T06:26:52;15.00;;;2.57;;
20559;SDS011;10438;51.454;6.718;2023-04-03T06:29:18;6.50;;;2.23;;
20559;SDS011;10438;51.454;6.718;2023-04-03T06:31:45;9.73;;;2.77;;
20559;SDS011;10438;51.454;6.718;2023-04-03T06:34:11;7.13;;;2.27;;
20559;SDS011;10438;51.454;6.718;2023-04-03T06:36:38;11.03;;;2.30;;
20559;SDS011;10438;51.454;6.718;2023-04-03T06:39:04;8.53;;;2.30;;
20559;SDS011;10438;51.454;6.718;2023-04-03T06:41:30;11.73;;;2.37;;
20559;SDS011;10438;51.454;6.718;2023-04-03T06:43:56;11.53;;;2.60;;
20559;SDS011;10438;51.454;6.718;2023-04-03T06:46:23;9.80;;;2.37;;
20559;SDS011;10438;51.454;6.718;2023-04-03T06:48:50;12.50;;;2.80;;
20559;SDS011;10438;51.454;6.718;2023-04-03T06:51:26;8.30;;;2.07;;
20559;SDS011;10438;51.454;6.718;2023-04-03T06:53:54;9.40;;;2.40;;
20559;SDS011;10438;51.454;6.718;2023-04-03T06:56:22;9.03;;;2.40;;
20559;SDS011;10438;51.454;6.718;2023-04-03T06:58:48;10.70;;;2.80;;
20559;SDS011;10438;51.454;6.718;2023-04-03T07:01:15;9.80;;;3.10;;
20559;SDS011;10438;51.454;6.718;2023-04-03T07:03:42;13.57;;;2.70;;
20559;SDS011;10438;51.454;6.718;2023-04-03T07:06:09;8.07;;;1.93;;
20559;SDS011;10438;51.454;6.718;2023-04-03T07:08:36;10.13;;;2.47;;
20559;SDS011;10438;51.454;6.718;2023-04-03T07:11:03;8.13;;;2.50;;
20559;SDS011;10438;51.454;6.718;2023-04-03T07:13:29;11.70;;;2.63;;
20559;SDS011;10438;51.454;6.718;2023-04-03T07:15:55;8.80;;;2.20;;
20559;SDS011;10438;51.454;6.718;2023-04-03T07:18:20;15.83;;;3.07;;
20559;SDS011;10438;51.454;6.718;2023-04-03T07:20:46;9.57;;;2.17;;
20559;SDS011;10438;51.454;6.718;2023-04-03T07:23:12;9.97;;;2.40;;
20559;SDS011;10438;51.454;6.718;2023-04-03T07:25:44;11.97;;;3.87;;
20559;SDS011;10438;51.454;6.718;2023-04-03T07:28:11;9.30;;;2.93;;
20559;SDS011;10438;51.454;6.718;2023-04-03T07:30:47;9.60;;;3.37;;
20559;SDS011;10438;51.454;6.718;2023-04-03T07:33:18;9.53;;;2.67;;
20559;SDS011;10438;51.454;6.718;2023-04-03T07:35:45;12.83;;;2.77;;
20559;SDS011;10438;51.454;6.718;2023-04-03T07:38:11;13.83;;;2.47;;
20559;SDS011;10438;51.454;6.718;2023-04-03T07:40:37;11.90;;;2.90;;
20559;SDS011;10438;51.454;6.718;2023-04-03T07:43:03;13.93;;;2.70;;
20559;SDS011;10438;51.454;6.718;2023-04-03T07:45:30;8.40;;;2.23;;
20559;SDS011;10438;51.454;6.718;2023-04-03T07:47:56;13.83;;;2.60;;
20559;SDS011;10438;51.454;6.718;2023-04-03T07:50:22;7.87;;;2.60;;
20559;SDS011;10438;51.454;6.718;2023-04-03T07:52:47;14.33;;;2.20;;
20559;SDS011;10438;51.454;6.718;2023-04-03T07:55:13;5.00;;;1.90;;
20559;SDS011;10438;51.454;6.718;2023-04-03T07:57:39;9.20;;;2.20;;
20559;SDS011;10438;51.454;6.718;2023-04-03T08:00:06;12.63;;;2.43;;
20559;SDS011;10438;51.454;6.718;2023-04-03T08:02:32;6.23;;;2.00;;
20559;SDS011;10438;51.454;6.718;2023-04-03T08:04:58;10.67;;;2.17;;
20559;SDS011;10438;51.454;6.718;2023-04-03T08:07:24;8.37;;;2.00;;
20559;SDS011;10438;51.454;6.718;2023-04-03T08:09:50;6.63;;;2.00;;
20559;SDS011;10438;51.454;6.718;2023-04-03T08:12:15;7.27;;;1.90;;
20559;SDS011;10438;51.454;6.718;2023-04-03T08:14:41;8.77;;;2.10;;
20559;SDS011;10438;51.454;6.718;2023-04-03T08:17:07;10.37;;;2.47;;
20559;SDS011;10438;51.454;6.718;2023-04-03T08:19:36;9.80;;;2.13;;
20559;SDS011;10438;51.454;6.718;2023-04-03T08:22:03;8.00;;;2.07;;
20559;SDS011;10438;51.454;6.718;2023-04-03T08:24:29;7.00;;;2.13;;
20559;SDS011;10438;51.454;6.718;2023-04-03T08:26:58;8.07;;;1.87;;
20559;SDS011;10438;51.454;6.718;2023-04-03T08:29:26;7.47;;;2.10;;
20559;SDS011;10438;51.454;6.718;2023-04-03T08:31:51;8.03;;;2.00;;
20559;SDS011;10438;51.454;6.718;2023-04-03T08:34:17;8.77;;;1.93;;
20559;SDS011;10438;51.454;6.718;2023-04-03T08:36:44;8.63;;;1.93;;
20559;SDS011;10438;51.454;6.718;2023-04-03T08:39:10;8.97;;;1.97;;
20559;SDS011;10438;51.454;6.718;2023-04-03T08:41:37;7.70;;;1.90;;
20559;SDS011;10438;51.454;6.718;2023-04-03T08:44:18;9.27;;;2.13;;
20559;SDS011;10438;51.454;6.718;2023-04-03T08:52:13;7.07;;;1.70;;
20559;SDS011;10438;51.454;6.718;2023-04-03T08:54:59;5.37;;;1.83;;
20559;SDS011;10438;51.454;6.718;2023-04-03T08:59:59;4.90;;;1.70;;
20559;SDS011;10438;51.454;6.718;2023-04-03T09:02:32;8.10;;;1.70;;
20559;SDS011;10438;51.454;6.718;2023-04-03T09:05:11;7.77;;;1.93;;
20559;SDS011;10438;51.454;6.718;2023-04-03T09:07:43;6.47;;;1.77;;
20559;SDS011;10438;51.454;6.718;2023-04-03T09:10:15;7.73;;;1.80;;
20559;SDS011;10438;51.454;6.718;2023-04-03T09:13:01;8.93;;;1.60;;
20559;SDS011;10438;51.454;6.718;2023-04-03T09:15:46;4.57;;;1.10;;
20559;SDS011;10438;51.454;6.718;2023-04-03T09:18:16;3.47;;;1.37;;
20559;SDS011;10438;51.454;6.718;2023-04-03T09:23:51;6.03;;;1.53;;
20559;SDS011;10438;51.454;6.718;2023-04-03T09:26:28;4.87;;;1.50;;
20559;SDS011;10438;51.454;6.718;2023-04-03T09:28:59;8.47;;;1.33;;
20559;SDS011;10438;51.454;6.718;2023-04-03T09:31:32;5.10;;;1.20;;
20559;SDS011;10438;51.454;6.718;2023-04-03T09:34:07;10.37;;;2.47;;
20559;SDS011;10438;51.454;6.718;2023-04-03T09:36:41;7.17;;;1.60;;
20559;SDS011;10438;51.454;6.718;2023-04-03T09:39:25;3.77;;;1.20;;
20559;SDS011;10438;51.454;6.718;2023-04-03T09:41:57;3.83;;;1.10;;
20559;SDS011;10438;51.454;6.718;2023-04-03T09:44:25;9.27;;;1.63;;
20559;SDS011;10438;51.454;6.718;2023-04-03T09:46:57;4.43;;;1.37;;
20559;SDS011;10438;51.454;6.718;2023-04-03T09:49:23;6.93;;;1.50;;
20559;SDS011;10438;51.454;6.718;2023-04-03T09:51:48;6.93;;;1.80;;
20559;SDS011;10438;51.454;6.718;2023-04-03T09:54:34;6.07;;;1.80;;
20559;SDS011;10438;51.454;6.718;2023-04-03T09:57:06;7.17;;;1.97;;
20559;SDS011;10438;51.454;6.718;2023-04-03T09:59:34;6.63;;;1.67;;
20559;SDS011;10438;51.454;6.718;2023-04-03T10:02:04;5.23;;;1.77;;
20559;SDS011;10438;51.454;6.718;2023-04-03T10:04:47;6.87;;;1.20;;
20559;SDS011;10438;51.454;6.718;2023-04-03T10:07:26;4.87;;;1.00;;
20559;SDS011;10438;51.454;6.718;2023-04-03T10:09:56;5.77;;;1.13;;
20559;SDS011;10438;51.454;6.718;2023-04-03T10:12:23;6.10;;;1.23;;
20559;SDS011;10438;51.454;6.718;2023-04-03T10:17:18;8.97;;;1.90;;
20559;SDS011;10438;51.454;6.718;2023-04-03T10:20:22;5.97;;;0.90;;
20559;SDS011;10438;51.454;6.718;2023-04-03T10:25:55;6.53;;;1.00;;
20559;SDS011;10438;51.454;6.718;2023-04-03T10:41:58;2.97;;;0.80;;
20559;SDS011;10438;51.454;6.718;2023-04-03T10:44:40;4.57;;;1.40;;
20559;SDS011;10438;51.454;6.718;2023-04-03T10:47:29;2.63;;;0.90;;
20559;SDS011;10438;51.454;6.718;2023-04-03T10:50:22;3.60;;;0.90;;
20559;SDS011;10438;51.454;6.718;2023-04-03T10:52:52;3.83;;;0.77;;
20559;SDS011;10438;51.454;6.718;2023-04-03T10:55:43;8.93;;;1.10;;
20559;SDS011;10438;51.454;6.718;2023-04-03T10:58:19;4.57;;;1.10;;
20559;SDS011;10438;51.454;6.718;2023-04-03T11:00:51;3.90;;;1.40;;
20559;SDS011;10438;51.454;6.718;2023-04-03T11:03:32;3.97;;;1.33;;
20559;SDS011;10438;51.454;6.718;2023-04-03T11:06:07;14.27;;;1.30;;
20559;SDS011;10438;51.454;6.718;2023-04-03T11:08:37;3.50;;;1.20;;
20559;SDS011;10438;51.454;6.718;2023-04-03T11:11:13;6.57;;;1.60;;
20559;SDS011;10438;51.454;6.718;2023-04-03T11:16:27;3.43;;;1.13;;
20559;SDS011;10438;51.454;6.718;2023-04-03T11:21:32;5.67;;;1.20;;
20559;SDS011;10438;51.454;6.718;2023-04-03T11:24:03;6.00;;;1.33;;
20559;SDS011;10438;51.454;6.718;2023-04-03T11:26:37;6.97;;;1.70;;
20559;SDS011;10438;51.454;6.718;2023-04-03T11:29:07;6.50;;;1.60;;
20559;SDS011;10438;51.454;6.718;2023-04-03T11:34:47;4.63;;;1.33;;
20559;SDS011;10438;51.454;6.718;2023-04-03T11:37:17;9.20;;;1.40;;
20559;SDS011;10438;51.454;6.718;2023-04-03T11:39:57;8.27;;;1.70;;
20559;SDS011;10438;51.454;6.718;2023-04-03T11:42:33;8.53;;;1.47;;
20559;SDS011;10438;51.454;6.718;2023-04-03T11:47:55;4.57;;;1.40;;
20559;SDS011;10438;51.454;6.718;2023-04-03T11:53:00;6.10;;;1.30;;
20559;SDS011;10438;51.454;6.718;2023-04-03T12:03:29;3.83;;;1.07;;
20559;SDS011;10438;51.454;6.718;2023-04-03T12:08:45;5.27;;;1.30;;
20559;SDS011;10438;51.454;6.718;2023-04-03T12:11:25;4.87;;;1.93;;
20559;SDS011;10438;51.454;6.718;2023-04-03T12:16:21;5.10;;;1.30;;
20559;SDS011;10438;51.454;6.718;2023-04-03T12:29:20;4.43;;;1.00;;
20559;SDS011;10438;51.454;6.718;2023-04-03T12:40:55;3.47;;;1.10;;
20559;SDS011;10438;51.454;6.718;2023-04-03T12:44:00;5.17;;;1.40;;
20559;SDS011;10438;51.454;6.718;2023-04-03T12:46:46;6.50;;;1.10;;
20559;SDS011;10438;51.454;6.718;2023-04-03T12:51:51;4.43;;;1.07;;
20559;SDS011;10438;51.454;6.718;2023-04-03T12:57:10;8.07;;;1.73;;
20559;SDS011;10438;51.454;6.718;2023-04-03T12:59:42;5.73;;;2.47;;
20559;SDS011;10438;51.454;6.718;2023-04-03T13:02:17;10.53;;;0.97;;
20559;SDS011;10438;51.454;6.718;2023-04-03T13:04:55;4.57;;;1.67;;
20559;SDS011;10438;51.454;6.718;2023-04-03T13:09:55;8.87;;;1.33;;
20559;SDS011;10438;51.454;6.718;2023-04-03T13:12:28;4.77;;;1.70;;
20559;SDS011;10438;51.454;6.718;2023-04-03T13:14:55;7.87;;;2.23;;
20559;SDS011;10438;51.454;6.718;2023-04-03T13:17:23;7.10;;;2.47;;
20559;SDS011;10438;51.454;6.718;2023-04-03T13:19:49;7.87;;;2.53;;
20559;SDS011;10438;51.454;6.718;2023-04-03T13:22:21;9.20;;;1.87;;
20559;SDS011;10438;51.454;6.718;2023-04-03T13:24:49;5.43;;;1.43;;
20559;SDS011;10438;51.454;6.718;2023-04-03T13:27:17;4.30;;;1.40;;
20559;SDS011;10438;51.454;6.718;2023-04-03T13:29:43;4.77;;;1.10;;
20559;SDS011;10438;51.454;6.718;2023-04-03T13:32:17;5.77;;;1.20;;
20559;SDS011;10438;51.454;6.718;2023-04-03T13:34:46;4.53;;;1.20;;
20559;SDS011;10438;51.454;6.718;2023-04-03T13:37:22;7.80;;;2.07;;
20559;SDS011;10438;51.454;6.718;2023-04-03T13:39:57;6.93;;;1.60;;
20559;SDS011;10438;51.454;6.718;2023-04-03T13:42:58;4.60;;;1.33;;
20559;SDS011;10438;51.454;6.718;2023-04-03T13:45:27;6.00;;;1.47;;
20559;SDS011;10438;51.454;6.718;2023-04-03T13:48:19;4.33;;;1.10;;
20559;SDS011;10438;51.454;6.718;2023-04-03T13:53:25;5.50;;;1.23;;
20559;SDS011;10438;51.454;6.718;2023-04-03T13:58:33;4.70;;;1.20;;
20559;SDS011;10438;51.454;6.718;2023-04-03T14:01:25;5.93;;;1.37;;
20559;SDS011;10438;51.454;6.718;2023-04-03T14:03:59;5.67;;;1.70;;
20559;SDS011;10438;51.454;6.718;2023-04-03T14:06:26;5.43;;;1.33;;
20559;SDS011;10438;51.454;6.718;2023-04-03T14:08:52;5.93;;;1.40;;
20559;SDS011;10438;51.454;6.718;2023-04-03T14:11:19;5.57;;;1.60;;
20559;SDS011;10438;51.454;6.718;2023-04-03T14:13:51;8.63;;;1.47;;
20559;SDS011;10438;51.454;6.718;2023-04-03T14:16:20;7.63;;;1.27;;
20559;SDS011;10438;51.454;6.718;2023-04-03T14:18:48;4.03;;;1.13;;
20559;SDS011;10438;51.454;6.718;2023-04-03T14:21:15;4.67;;;1.10;;
20559;SDS011;10438;51.454;6.718;2023-04-03T14:23:42;13.57;;;1.50;;
20559;SDS011;10438;51.454;6.718;2023-04-03T14:26:10;3.00;;;0.90;;
20559;SDS011;10438;51.454;6.718;2023-04-03T14:28:42;4.37;;;1.10;;
20559;SDS011;10438;51.454;6.718;2023-04-03T14:31:09;4.67;;;1.20;;
20559;SDS011;10438;51.454;6.718;2023-04-03T14:33:36;4.07;;;1.13;;
20559;SDS011;10438;51.454;6.718;2023-04-03T14:36:10;4.53;;;1.00;;
20559;SDS011;10438;51.454;6.718;2023-04-03T14:38:36;3.27;;;1.20;;
20559;SDS011;10438;51.454;6.718;2023-04-03T14:41:02;4.63;;;1.20;;
20559;SDS011;10438;51.454;6.718;2023-04-03T14:43:27;3.87;;;1.00;;
20559;SDS011;10438;51.454;6.718;2023-04-03T14:45:53;5.07;;;1.30;;
20559;SDS011;10438;51.454;6.718;2023-04-03T14:48:20;7.50;;;1.30;;
20559;SDS011;10438;51.454;6.718;2023-04-03T14:50:48;6.43;;;1.50;;
20559;SDS011;10438;51.454;6.718;2023-04-03T14:53:16;4.80;;;1.20;;
20559;SDS011;10438;51.454;6.718;2023-04-03T14:55:46;4.87;;;1.27;;
20559;SDS011;10438;51.454;6.718;2023-04-03T14:58:13;4.67;;;1.13;;
20559;SDS011;10438;51.454;6.718;2023-04-03T15:00:40;3.53;;;1.10;;
20559;SDS011;10438;51.454;6.718;2023-04-03T15:03:05;4.40;;;1.20;;
20559;SDS011;10438;51.454;6.718;2023-04-03T15:05:34;3.47;;;0.90;;
20559;SDS011;10438;51.454;6.718;2023-04-03T15:08:02;4.25;;;1.33;;
20559;SDS011;10438;51.454;6.718;2023-04-03T15:10:28;4.87;;;1.17;;
20559;SDS011;10438;51.454;6.718;2023-04-03T15:12:55;4.80;;;1.10;;
20559;SDS011;10438;51.454;6.718;2023-04-03T15:15:22;8.63;;;1.80;;
20559;SDS011;10438;51.454;6.718;2023-04-03T15:17:51;5.60;;;1.50;;
20559;SDS011;10438;51.454;6.718;2023-04-03T15:20:23;3.80;;;1.30;;
20559;SDS011;10438;51.454;6.718;2023-04-03T15:22:51;7.70;;;1.43;;
20559;SDS011;10438;51.454;6.718;2023-04-03T15:25:17;5.90;;;2.20;;
20559;SDS011;10438;51.454;6.718;2023-04-03T15:27:43;6.27;;;1.40;;
20559;SDS011;10438;51.454;6.718;2023-04-03T15:30:11;6.93;;;1.50;;
20559;SDS011;10438;51.454;6.718;2023-04-03T15:32:40;6.07;;;1.40;;
20559;SDS011;10438;51.454;6.718;2023-04-03T15:35:06;5.77;;;1.30;;
20559;SDS011;10438;51.454;6.718;2023-04-03T15:37:32;6.27;;;1.60;;
20559;SDS011;10438;51.454;6.718;2023-04-03T15:39:57;8.30;;;2.37;;
20559;SDS011;10438;51.454;6.718;2023-04-03T15:42:23;5.53;;;1.80;;
20559;SDS011;10438;51.454;6.718;2023-04-03T15:44:48;5.10;;;1.40;;
20559;SDS011;10438;51.454;6.718;2023-04-03T15:47:14;5.77;;;2.03;;
20559;SDS011;10438;51.454;6.718;2023-04-03T15:49:40;7.80;;;1.83;;
20559;SDS011;10438;51.454;6.718;2023-04-03T15:52:06;9.80;;;2.23;;
20559;SDS011;10438;51.454;6.718;2023-04-03T15:54:32;6.63;;;1.47;;
20559;SDS011;10438;51.454;6.718;2023-04-03T15:56:57;4.73;;;1.37;;
20559;SDS011;10438;51.454;6.718;2023-04-03T15:59:23;6.90;;;2.17;;
20559;SDS011;10438;51.454;6.718;2023-04-03T16:01:49;6.67;;;1.60;;
20559;SDS011;10438;51.454;6.718;2023-04-03T16:04:15;12.17;;;1.97;;
20559;SDS011;10438;51.454;6.718;2023-04-03T16:06:42;6.40;;;1.40;;
20559;SDS011;10438;51.454;6.718;2023-04-03T16:09:08;5.70;;;1.20;;
20559;SDS011;10438;51.454;6.718;2023-04-03T16:11:34;8.73;;;1.80;;
20559;SDS011;10438;51.454;6.718;2023-04-03T16:14:02;4.63;;;1.40;;
20559;SDS011;10438;51.454;6.718;2023-04-03T16:16:27;4.23;;;1.30;;
20559;SDS011;10438;51.454;6.718;2023-04-03T16:18:54;3.60;;;1.40;;
20559;SDS011;10438;51.454;6.718;2023-04-03T16:21:20;4.67;;;1.20;;
20559;SDS011;10438;51.454;6.718;2023-04-03T16:23:47;7.30;;;1.40;;
20559;SDS011;10438;51.454;6.718;2023-04-03T16:26:12;4.43;;;1.50;;